Time;durP1;ratioP1;P1;durP2;ratioP2;P2;SDS_P1;SDS_P2;PMS_P1;PMS_P2;Temp;Humidity;BMP_temperature;BMP_pressure;BME280_temperature;BME280_humidity;BME280_pressure;Samples;Min_cycle;Max_cycle;Signal;HPM_P1;HPM_P2
2020/12/26 00:01:20;;;;;;;13.70;8.87;;;;;;;1.50;78.42;99952.30;120524;1150;104620;-77
2020/12/26 00:03:49;;;;;;;12.60;8.80;;;;;;;1.44;78.29;99953.16;120496;1148;104370;-77
2020/12/26 00:06:19;;;;;;;13.37;8.93;;;;;;;1.43;78.52;99956.56;120552;1148;104148;-78
2020/12/26 00:08:47;;;;;;;14.45;9.20;;;;;;;1.44;78.66;99960.02;120662;1148;104423;-78
2020/12/26 00:11:16;;;;;;;15.73;9.33;;;;;;;1.44;78.56;99957.45;120611;1146;104498;-78
2020/12/26 00:13:45;;;;;;;14.13;9.20;;;;;;;1.41;78.38;99957.42;120609;1148;104854;-78
2020/12/26 00:16:13;;;;;;;14.00;8.87;;;;;;;1.41;78.67;99957.42;120551;1148;104839;-78
2020/12/26 00:18:42;;;;;;;12.50;8.73;;;;;;;1.45;78.72;99954.02;120577;1148;104322;-78
2020/12/26 00:21:15;;;;;;;14.77;8.63;;;;;;;1.44;78.69;99953.16;120532;1148;104348;-78
2020/12/26 00:23:43;;;;;;;14.27;9.33;;;;;;;1.41;78.46;99950.56;120661;1149;104313;-78
2020/12/26 00:26:18;;;;;;;13.03;8.40;;;;;;;1.43;78.97;99953.14;120624;1150;104386;-78
2020/12/26 00:28:46;;;;;;;12.87;8.77;;;;;;;1.48;79.07;99954.02;120590;1148;104181;-78
2020/12/26 00:31:16;;;;;;;14.17;9.20;;;;;;;1.51;79.18;99951.44;120644;1150;104434;-78
2020/12/26 00:33:44;;;;;;;13.73;9.07;;;;;;;1.55;78.99;99952.29;120582;1151;104305;-78
2020/12/26 00:36:12;;;;;;;14.80;9.37;;;;;;;1.52;78.76;99950.58;120590;1148;102582;-78
2020/12/26 00:38:39;;;;;;;14.97;9.27;;;;;;;1.51;79.02;99954.02;120551;1150;103073;-78
2020/12/26 00:41:12;;;;;;;13.37;9.00;;;;;;;1.51;79.03;99954.87;120509;1150;104437;-77
2020/12/26 00:43:44;;;;;;;16.90;9.13;;;;;;;1.52;79.16;99950.58;120553;1148;104357;-78
2020/12/26 00:46:11;;;;;;;13.83;9.17;;;;;;;1.54;79.26;99948.01;120580;1148;104369;-78
2020/12/26 00:48:39;;;;;;;14.67;9.20;;;;;;;1.53;79.27;99952.30;120704;1150;104316;-78
2020/12/26 00:51:13;;;;;;;14.43;9.27;;;;;;;1.49;79.26;99943.73;120559;1150;104611;-78
2020/12/26 00:53:40;;;;;;;11.57;8.40;;;;;;;1.49;79.25;99945.45;120560;1148;104333;-78
2020/12/26 00:56:09;;;;;;;13.40;8.10;;;;;;;1.47;79.29;99947.16;120531;1148;104399;-78
2020/12/26 00:58:38;;;;;;;12.77;8.37;;;;;;;1.45;79.39;99961.73;120571;1148;104840;-78
2020/12/26 01:01:05;;;;;;;9.47;6.47;;;;;;;1.39;79.60;99961.70;120524;1149;104429;-78
2020/12/26 01:03:54;;;;;;;7.40;5.57;;;;;;;1.33;79.09;99954.86;120543;1148;104420;-77
2020/12/26 01:06:21;;;;;;;7.10;4.97;;;;;;;1.26;79.16;99965.11;120579;1148;104532;-78
2020/12/26 01:08:49;;;;;;;7.73;5.10;;;;;;;1.17;79.33;99964.27;120608;1148;104306;-78
2020/12/26 01:11:19;;;;;;;5.53;4.20;;;;;;;1.11;79.57;99958.27;120542;1148;104762;-78
2020/12/26 01:13:49;;;;;;;5.90;4.43;;;;;;;1.06;79.42;99965.09;120622;1148;104319;-79
2020/12/26 01:16:17;;;;;;;5.67;3.93;;;;;;;0.99;79.75;99974.51;120562;1148;104122;-81
2020/12/26 01:18:44;;;;;;;5.27;3.80;;;;;;;0.96;79.64;99969.38;120475;1148;104482;-78
2020/12/26 01:21:15;;;;;;;5.70;3.63;;;;;;;0.95;79.80;99972.80;120513;1148;104395;-78
2020/12/26 01:23:42;;;;;;;5.30;3.50;;;;;;;0.93;79.65;99974.50;120548;1148;104344;-78
2020/12/26 01:26:10;;;;;;;4.37;3.10;;;;;;;0.89;79.85;99973.61;120541;1147;104406;-78
2020/12/26 01:28:38;;;;;;;4.20;3.17;;;;;;;0.86;79.78;99977.89;120579;1148;103164;-78
2020/12/26 01:31:06;;;;;;;3.20;2.50;;;;;;;0.81;79.57;99982.16;120557;1145;104361;-78
2020/12/26 01:33:33;;;;;;;4.37;2.60;;;;;;;0.77;79.84;99978.73;120619;1148;104420;-78
2020/12/26 01:36:00;;;;;;;3.27;2.33;;;;;;;0.75;79.57;99975.31;120583;1148;104331;-78
2020/12/26 01:38:28;;;;;;;3.90;2.60;;;;;;;0.73;79.79;99984.72;120624;1148;104367;-78
2020/12/26 01:40:55;;;;;;;3.23;2.23;;;;;;;0.70;79.55;99978.69;120589;1148;104335;-78
2020/12/26 01:43:22;;;;;;;3.87;2.40;;;;;;;0.68;79.62;99985.53;120581;1148;104411;-78
2020/12/26 01:45:50;;;;;;;3.10;2.15;;;;;;;0.64;79.63;99982.10;120644;1148;104439;-78
2020/12/26 01:48:17;;;;;;;3.87;2.10;;;;;;;0.56;79.73;99982.09;120567;1151;104767;-79
2020/12/26 01:50:46;;;;;;;2.50;2.00;;;;;;;0.54;79.47;99983.80;120529;1148;105945;-78
2020/12/26 01:53:13;;;;;;;3.30;2.27;;;;;;;0.51;79.59;99990.59;120550;1148;104337;-78
2020/12/26 01:55:41;;;;;;;3.07;1.90;;;;;;;0.45;79.35;99982.88;120574;1148;104439;-78
2020/12/26 01:58:13;;;;;;;2.20;1.80;;;;;;;0.39;79.84;99993.98;120553;1148;104332;-78
2020/12/26 02:00:41;;;;;;;2.53;1.90;;;;;;;0.39;79.68;99991.42;120646;1148;104208;-78
2020/12/26 02:03:10;;;;;;;3.57;2.30;;;;;;;0.37;79.76;99990.56;120570;1148;104724;-78
2020/12/26 02:05:38;;;;;;;4.60;2.47;;;;;;;0.38;79.69;99999.11;120597;1148;104439;-78
2020/12/26 02:08:05;;;;;;;2.57;2.33;;;;;;;0.36;80.08;99999.11;120520;1148;104539;-78
2020/12/26 02:10:33;;;;;;;4.50;2.83;;;;;;;0.35;80.22;99999.92;120570;1148;104450;-78
2020/12/26 02:13:01;;;;;;;4.23;2.80;;;;;;;0.33;80.04;99990.51;120616;1148;104522;-78
2020/12/26 02:15:28;;;;;;;4.50;3.20;;;;;;;0.30;79.87;99999.91;120657;1148;104314;-78
2020/12/26 02:17:55;;;;;;;4.97;3.60;;;;;;;0.31;80.03;100003.33;120620;1148;104466;-78
2020/12/26 02:20:35;;;;;;;4.13;3.20;;;;;;;0.29;79.84;99999.91;120587;1148;104383;-78
2020/12/26 02:23:03;;;;;;;5.00;3.60;;;;;;;0.25;79.92;100009.30;120645;1148;104391;-78
2020/12/26 02:25:32;;;;;;;5.37;3.37;;;;;;;0.21;79.93;100010.13;120536;1151;104471;-78
2020/12/26 02:27:59;;;;;;;4.47;3.50;;;;;;;0.18;79.88;100001.53;120551;1148;104493;-78
2020/12/26 02:30:26;;;;;;;4.20;3.50;;;;;;;0.15;80.23;100009.22;120576;1148;104301;-78
2020/12/26 02:32:54;;;;;;;4.08;3.17;;;;;;;0.16;80.30;100014.35;120518;1148;105469;-78
2020/12/26 02:35:21;;;;;;;4.37;3.00;;;;;;;0.15;79.90;100007.52;120562;1148;104359;-78
2020/12/26 02:37:48;;;;;;;5.87;3.97;;;;;;;0.15;80.23;100006.66;120553;1148;104322;-78
2020/12/26 02:40:15;;;;;;;5.63;3.77;;;;;;;0.15;80.35;100009.22;120554;1148;104383;-78
2020/12/26 02:42:44;;;;;;;5.43;3.73;;;;;;;0.15;80.58;100011.78;120515;1148;105963;-78
2020/12/26 02:45:11;;;;;;;4.47;3.60;;;;;;;0.15;80.10;100022.04;120576;1148;104439;-79
2020/12/26 02:47:38;;;;;;;4.25;3.45;;;;;;;0.16;80.20;100013.50;120582;1148;104307;-78
2020/12/26 02:50:06;;;;;;;4.65;3.62;;;;;;;0.16;80.56;100008.37;120560;1148;104422;-78
2020/12/26 02:52:33;;;;;;;5.53;4.03;;;;;;;0.17;80.15;99995.55;120619;1148;104505;-78
2020/12/26 02:55:00;;;;;;;5.10;3.87;;;;;;;0.14;80.49;99990.41;120585;1148;104914;-78
2020/12/26 02:57:28;;;;;;;5.57;3.83;;;;;;;0.14;80.37;99997.25;120544;1148;104407;-78
2020/12/26 02:59:55;;;;;;;4.23;3.43;;;;;;;0.08;80.15;100004.91;120545;1148;104380;-78
2020/12/26 03:02:22;;;;;;;6.15;4.10;;;;;;;0.08;80.56;100010.89;120625;1148;104301;-77
2020/12/26 03:04:50;;;;;;;3.97;3.57;;;;;;;0.06;80.59;100004.05;120582;1148;104406;-78
2020/12/26 03:07:17;;;;;;;5.37;3.80;;;;;;;0.08;80.58;100010.05;120514;1148;103398;-78
2020/12/26 03:09:45;;;;;;;6.27;4.10;;;;;;;0.10;80.51;100009.20;120515;1149;104409;-78
2020/12/26 03:12:13;;;;;;;6.33;4.27;;;;;;;0.09;80.65;100007.48;120588;1148;104395;-78
2020/12/26 03:14:40;;;;;;;5.73;4.13;;;;;;;0.07;80.71;100009.19;120542;1151;104368;-77
2020/12/26 03:17:07;;;;;;;5.12;3.50;;;;;;;0.08;80.48;100020.30;120560;1148;104409;-78
2020/12/26 03:19:34;;;;;;;7.57;4.10;;;;;;;0.05;80.55;100016.02;120527;1148;104508;-78
2020/12/26 03:22:01;;;;;;;7.83;4.43;;;;;;;0.06;80.69;100022.00;120555;1150;104394;-77
2020/12/26 03:24:29;;;;;;;8.33;4.72;;;;;;;0.06;80.73;100022.00;120545;1150;104946;-77
2020/12/26 03:26:56;;;;;;;7.90;4.83;;;;;;;0.05;80.72;100016.02;120576;1150;104336;-77
2020/12/26 03:29:23;;;;;;;6.83;4.40;;;;;;;0.06;80.82;100022.00;120510;1148;104441;-77
2020/12/26 03:31:54;;;;;;;8.70;4.90;;;;;;;0.06;80.53;100019.43;120538;1148;104476;-78
2020/12/26 03:34:22;;;;;;;6.00;4.50;;;;;;;0.06;80.66;100022.86;120512;1148;103230;-78
2020/12/26 03:36:50;;;;;;;7.15;4.70;;;;;;;0.06;80.95;100032.25;120545;1148;104905;-77
2020/12/26 03:39:17;;;;;;;8.50;5.17;;;;;;;0.03;80.68;100027.97;120593;1148;104415;-78
2020/12/26 03:41:45;;;;;;;6.17;4.80;;;;;;;0.03;81.09;100033.09;120560;1148;104311;-78
2020/12/26 03:44:13;;;;;;;7.73;5.13;;;;;;;0.02;80.81;100023.69;120499;1148;104467;-78
2020/12/26 03:46:40;;;;;;;7.17;4.83;;;;;;;0.04;80.85;100033.95;120591;1148;104407;-78
2020/12/26 03:49:07;;;;;;;7.17;5.33;;;;;;;0.05;80.86;100025.41;120586;1148;104391;-78
2020/12/26 03:51:35;;;;;;;8.70;5.33;;;;;;;0.06;81.11;100034.81;120531;1148;104455;-78
2020/12/26 03:54:02;;;;;;;8.37;5.13;;;;;;;0.09;81.07;100038.25;120615;1148;104478;-78
2020/12/26 03:56:29;;;;;;;8.30;5.17;;;;;;;0.09;80.93;100037.39;120558;1149;103410;-77
2020/12/26 03:58:57;;;;;;;8.50;5.00;;;;;;;0.09;81.03;100035.69;120503;1150;104352;-78
2020/12/26 04:01:24;;;;;;;7.20;5.17;;;;;;;0.10;81.16;100036.55;120539;1148;104480;-78
2020/12/26 04:03:51;;;;;;;9.70;5.70;;;;;;;0.10;81.07;100045.09;120555;1148;104401;-79
2020/12/26 04:06:19;;;;;;;6.20;4.43;;;;;;;0.11;80.81;100041.69;120587;1147;104272;-78
2020/12/26 04:08:47;;;;;;;7.47;4.92;;;;;;;0.09;81.23;100039.96;120464;1148;104452;-78
2020/12/26 04:11:14;;;;;;;8.13;5.13;;;;;;;0.10;81.40;100033.98;120540;1148;104863;-78
2020/12/26 04:13:41;;;;;;;6.55;4.90;;;;;;;0.10;80.97;100047.66;120512;1150;104355;-78
2020/12/26 04:16:12;;;;;;;7.70;5.10;;;;;;;0.09;81.22;100048.52;120663;1148;102629;-78
2020/12/26 04:18:40;;;;;;;6.17;4.70;;;;;;;0.06;80.85;100043.37;120640;1148;104940;-78
2020/12/26 04:21:07;;;;;;;7.50;4.60;;;;;;;0.01;81.23;100044.19;120702;1148;104513;-78
2020/12/26 04:23:35;;;;;;;6.03;4.50;;;;;;;-0.05;80.98;100038.15;120633;1148;106796;-78
2020/12/26 04:26:03;;;;;;;8.17;4.70;;;;;;;-0.09;81.20;100044.11;120679;1148;104423;-77
2020/12/26 04:28:31;;;;;;;6.83;5.03;;;;;;;-0.10;81.04;100044.95;120598;1148;104471;-77
2020/12/26 04:30:58;;;;;;;6.90;4.90;;;;;;;-0.10;81.33;100051.79;120529;1148;105650;-78
2020/12/26 04:33:25;;;;;;;7.80;5.20;;;;;;;-0.12;81.59;100044.09;120566;1149;104295;-78
2020/12/26 04:35:53;;;;;;;7.50;5.27;;;;;;;-0.12;81.29;100046.66;120569;1148;104300;-78
2020/12/26 04:38:20;;;;;;;6.80;5.00;;;;;;;-0.11;81.53;100062.89;120539;1148;104890;-78
2020/12/26 04:40:48;;;;;;;8.07;5.50;;;;;;;-0.09;81.60;100062.05;120550;1148;104426;-78
2020/12/26 04:43:15;;;;;;;6.97;5.30;;;;;;;-0.06;81.53;100064.63;120534;1148;104417;-78
2020/12/26 04:45:44;;;;;;;7.35;5.45;;;;;;;-0.04;81.29;100062.08;120551;1148;104505;-78
2020/12/26 04:48:15;;;;;;;8.27;5.50;;;;;;;-0.02;81.38;100061.23;120586;1148;104433;-78
2020/12/26 04:50:48;;;;;;;8.90;5.17;;;;;;;0.03;81.34;100055.31;120560;1148;104362;-78
2020/12/26 04:53:19;;;;;;;9.13;5.40;;;;;;;0.07;81.62;100049.35;120541;1148;105012;-78
2020/12/26 04:55:50;;;;;;;7.20;5.40;;;;;;;0.11;81.38;100056.21;120585;1148;104535;-79
2020/12/26 04:58:18;;;;;;;7.23;5.07;;;;;;;0.12;81.55;100057.92;120636;1148;104394;-78
2020/12/26 05:00:46;;;;;;;6.70;5.30;;;;;;;0.14;81.13;100054.52;120636;1148;104359;-77
2020/12/26 05:03:17;;;;;;;8.13;5.43;;;;;;;0.16;81.22;100057.09;120569;1148;104391;-78
2020/12/26 05:05:45;;;;;;;7.80;5.63;;;;;;;0.17;81.15;100066.50;120577;1148;104330;-77
2020/12/26 05:08:15;;;;;;;7.50;5.27;;;;;;;0.19;81.38;100057.14;120572;1148;104391;-78
2020/12/26 05:10:43;;;;;;;6.63;4.80;;;;;;;0.24;81.14;100064.01;120667;1148;104367;-78
2020/12/26 05:13:13;;;;;;;8.67;5.30;;;;;;;0.27;81.15;100048.63;120626;1148;104432;-77
2020/12/26 05:15:40;;;;;;;8.85;5.60;;;;;;;0.31;81.15;100054.63;120727;1148;104436;-78
2020/12/26 05:18:07;;;;;;;6.80;5.20;;;;;;;0.36;81.19;100057.22;120598;1148;104278;-77
2020/12/26 05:20:35;;;;;;;8.70;5.05;;;;;;;0.42;81.36;100059.84;120521;1148;104748;-78
2020/12/26 05:23:12;;;;;;;12.55;5.22;;;;;;;0.47;81.19;100063.28;120579;1148;104394;-78
2020/12/26 05:25:40;;;;;;;7.20;5.13;;;;;;;0.46;81.00;100067.55;120548;1148;104406;-78
2020/12/26 05:28:14;;;;;;;9.27;5.33;;;;;;;0.50;81.20;100069.28;120594;1148;105358;-78
2020/12/26 05:30:44;;;;;;;9.73;5.50;;;;;;;0.54;80.99;100065.05;120550;1148;104395;-78
2020/12/26 05:33:12;;;;;;;6.80;5.53;;;;;;;0.57;80.78;100068.48;120571;1148;104542;-78
2020/12/26 05:35:42;;;;;;;8.83;5.40;;;;;;;0.59;80.82;100071.06;120572;1150;104382;-78
2020/12/26 05:38:19;;;;;;;7.57;5.30;;;;;;;0.59;80.71;100074.48;120571;1148;104336;-78
2020/12/26 05:40:59;;;;;;;6.23;5.07;;;;;;;0.57;80.84;100078.75;120539;1150;104371;-78
2020/12/26 05:43:29;;;;;;;8.33;5.90;;;;;;;0.57;80.70;100071.05;120554;1148;104599;-78
2020/12/26 05:45:57;;;;;;;7.83;5.47;;;;;;;0.59;80.96;100079.61;120568;1149;105014;-78
2020/12/26 05:48:27;;;;;;;7.93;5.80;;;;;;;0.65;81.16;100070.22;120615;1148;105120;-78
2020/12/26 05:50:57;;;;;;;7.83;6.23;;;;;;;0.66;80.73;100077.07;120616;1148;104364;-77
2020/12/26 05:53:25;;;;;;;8.40;6.40;;;;;;;0.68;81.02;100078.79;120621;1148;104298;-77
2020/12/26 05:55:53;;;;;;;7.97;6.07;;;;;;;0.69;80.73;100079.64;120672;1148;104471;-78
2020/12/26 05:58:23;;;;;;;7.90;6.40;;;;;;;0.71;81.03;100080.51;120523;1148;105376;-78
2020/12/26 06:00:51;;;;;;;7.63;6.40;;;;;;;0.70;80.81;100086.49;120554;1148;104563;-78
2020/12/26 06:03:26;;;;;;;7.85;6.45;;;;;;;0.71;80.83;100090.77;120565;1148;104365;-77
2020/12/26 06:05:56;;;;;;;7.67;5.93;;;;;;;0.72;80.86;100088.25;120570;1148;104362;-78
2020/12/26 06:08:25;;;;;;;8.27;6.00;;;;;;;0.72;81.07;100097.63;120590;1148;104384;-77
2020/12/26 06:10:55;;;;;;;9.80;6.17;;;;;;;0.73;80.77;100089.11;120593;1148;104462;-78
2020/12/26 06:13:24;;;;;;;9.03;6.37;;;;;;;0.76;80.99;100083.98;120536;1148;104335;-78
2020/12/26 06:16:11;;;;;;;9.10;6.80;;;;;;;0.75;80.67;100097.67;120559;1148;104460;-77
2020/12/26 06:18:41;;;;;;;7.87;6.12;;;;;;;0.75;80.94;100093.39;120565;1151;104370;-77
2020/12/26 06:21:09;;;;;;;7.00;5.73;;;;;;;0.77;80.88;100090.83;120682;1145;104296;-78
2020/12/26 06:23:38;;;;;;;8.23;6.37;;;;;;;0.81;81.12;100095.13;120603;1150;104972;-78
2020/12/26 06:26:06;;;;;;;7.57;6.17;;;;;;;0.84;80.92;100088.28;120767;1148;104436;-78
2020/12/26 06:28:35;;;;;;;7.90;6.00;;;;;;;0.85;80.92;100094.28;120609;1148;104371;-78
2020/12/26 06:31:08;;;;;;;9.33;6.50;;;;;;;0.82;80.67;100096.83;120582;1148;104345;-78
2020/12/26 06:33:40;;;;;;;11.17;6.90;;;;;;;0.81;80.86;100103.68;120541;1148;104475;-78
2020/12/26 06:36:10;;;;;;;7.33;5.93;;;;;;;0.79;80.46;100107.95;120562;1148;104435;-78
2020/12/26 06:38:38;;;;;;;9.03;6.40;;;;;;;0.80;80.69;100106.24;120578;1150;104385;-78
2020/12/26 06:41:06;;;;;;;10.40;6.47;;;;;;;0.80;80.71;100117.37;120553;1148;104236;-78
2020/12/26 06:43:46;;;;;;;8.87;5.93;;;;;;;0.80;80.58;100121.64;120568;1148;104432;-78
2020/12/26 06:46:13;;;;;;;9.23;5.90;;;;;;;0.80;80.73;100121.64;120559;1149;102752;-78
2020/12/26 06:48:46;;;;;;;9.03;6.87;;;;;;;0.80;80.62;100119.08;120522;1147;104863;-78
2020/12/26 06:51:27;;;;;;;7.67;6.00;;;;;;;0.82;81.04;100117.38;120584;1148;104372;-78
2020/12/26 06:53:56;;;;;;;8.47;6.70;;;;;;;0.82;80.85;100119.94;120606;1148;104340;-78
2020/12/26 06:56:33;;;;;;;8.70;6.70;;;;;;;0.85;80.94;100125.09;120678;1148;104299;-78
2020/12/26 06:59:08;;;;;;;10.60;6.83;;;;;;;0.87;80.73;100138.78;120581;1149;103122;-78
2020/12/26 07:01:38;;;;;;;12.70;7.10;;;;;;;0.87;80.78;100133.65;120520;1148;104440;-77
2020/12/26 07:04:11;;;;;;;9.30;6.73;;;;;;;0.88;80.67;100135.36;120560;1148;104287;-78
2020/12/26 07:06:44;;;;;;;9.77;6.97;;;;;;;0.90;80.82;100136.27;120536;1148;104366;-78
2020/12/26 07:09:16;;;;;;;10.30;6.70;;;;;;;0.93;80.52;100138.84;120515;1148;104342;-78
2020/12/26 07:11:51;;;;;;;8.85;6.90;;;;;;;0.95;80.73;100142.27;120562;1148;104426;-78
2020/12/26 07:14:35;;;;;;;9.37;6.83;;;;;;;0.97;80.79;100145.70;120564;1148;104418;-78
2020/12/26 07:17:15;;;;;;;10.37;7.27;;;;;;;0.97;80.52;100140.56;120575;1148;104341;-78
2020/12/26 07:19:46;;;;;;;9.07;6.87;;;;;;;0.98;80.18;100151.69;120562;1148;104332;-78
2020/12/26 07:22:16;;;;;;;10.90;7.70;;;;;;;0.97;80.36;100150.84;120594;1148;104390;-78
2020/12/26 07:24:46;;;;;;;8.97;7.50;;;;;;;0.97;80.21;100155.97;120670;1148;104411;-78
2020/12/26 07:27:19;;;;;;;11.67;7.93;;;;;;;0.93;80.27;100154.25;120547;1148;104405;-78
2020/12/26 07:29:53;;;;;;;12.40;7.80;;;;;;;0.92;79.77;100162.80;120564;1149;104329;-78
2020/12/26 07:32:36;;;;;;;11.00;7.30;;;;;;;0.95;80.06;100162.81;120588;1148;104419;-78
2020/12/26 07:35:08;;;;;;;9.97;7.87;;;;;;;0.95;79.76;100167.95;120599;1148;105471;-79
2020/12/26 07:37:35;;;;;;;9.80;7.37;;;;;;;0.95;79.80;100160.25;120526;1148;103132;-78
2020/12/26 07:40:03;;;;;;;11.13;7.80;;;;;;;0.96;79.58;100163.67;120578;1148;104419;-78
2020/12/26 07:42:32;;;;;;;10.33;8.00;;;;;;;0.97;79.81;100161.11;120549;1148;105602;-78
2020/12/26 07:45:13;;;;;;;10.13;7.20;;;;;;;1.00;79.46;100166.25;120511;1150;104319;-78
2020/12/26 07:47:43;;;;;;;9.93;6.93;;;;;;;1.02;79.46;100179.10;120550;1148;104383;-78
2020/12/26 07:50:13;;;;;;;13.20;7.77;;;;;;;1.05;79.37;100169.70;120551;1150;104374;-78
2020/12/26 07:52:54;;;;;;;10.70;7.63;;;;;;;1.09;79.12;100168.89;120562;1148;104542;-78
2020/12/26 07:55:23;;;;;;;8.87;6.83;;;;;;;1.21;79.06;100181.77;120509;1148;104297;-79
2020/12/26 07:58:00;;;;;;;10.03;7.00;;;;;;;1.35;78.72;100175.84;120636;1148;104413;-78
2020/12/26 08:00:31;;;;;;;8.53;6.47;;;;;;;1.41;78.44;100186.13;120573;1148;102349;-79
2020/12/26 08:03:01;;;;;;;7.47;5.60;;;;;;;1.50;78.26;100179.33;120528;1148;104436;-79
2020/12/26 08:05:31;;;;;;;8.10;6.00;;;;;;;1.62;78.35;100181.09;120539;1150;104455;-78
2020/12/26 08:07:59;;;;;;;16.30;8.80;;;;;;;1.76;78.11;100176.81;120506;1150;104352;-78
2020/12/26 08:10:28;;;;;;;10.20;7.17;;;;;;;1.90;77.22;100183.70;120570;1151;104434;-77
2020/12/26 08:12:58;;;;;;;11.63;7.90;;;;;;;2.03;77.70;100195.75;120620;1148;104442;-78
2020/12/26 08:15:31;;;;;;;12.27;8.20;;;;;;;2.13;76.93;100197.45;120645;1150;104445;-78
2020/12/26 08:18:03;;;;;;;11.75;7.70;;;;;;;2.15;76.71;100194.88;120545;1148;104358;-79
2020/12/26 08:20:35;;;;;;;10.60;7.40;;;;;;;2.12;76.90;100206.89;120585;1150;104213;-79
2020/12/26 08:23:02;;;;;;;10.70;7.43;;;;;;;2.08;76.29;100200.03;120608;1150;104405;-78
2020/12/26 08:25:31;;;;;;;10.03;7.47;;;;;;;2.08;76.82;100201.75;120638;1150;104343;-79
2020/12/26 08:27:59;;;;;;;10.27;7.00;;;;;;;2.09;76.63;100203.46;120654;1148;104454;-79
2020/12/26 08:30:38;;;;;;;10.00;7.43;;;;;;;2.16;76.84;100207.78;120577;1150;104504;-79
2020/12/26 08:33:19;;;;;;;8.83;7.17;;;;;;;2.18;76.12;100208.64;120497;1148;104433;-78
2020/12/26 08:35:55;;;;;;;9.83;7.07;;;;;;;2.20;75.74;100218.92;120535;1148;104346;-78
2020/12/26 08:38:27;;;;;;;8.60;6.45;;;;;;;2.19;76.44;100214.64;120569;1148;101921;-78
2020/12/26 08:40:56;;;;;;;8.50;6.73;;;;;;;2.14;76.28;100224.90;120636;1148;104339;-78
2020/12/26 08:43:25;;;;;;;8.73;6.50;;;;;;;2.09;76.46;100227.47;120565;1148;104404;-79
2020/12/26 08:45:52;;;;;;;10.57;7.77;;;;;;;2.05;76.07;100230.05;120583;1151;104395;-79
2020/12/26 08:48:23;;;;;;;8.87;6.77;;;;;;;1.96;76.31;100230.01;120520;1148;104249;-78
2020/12/26 08:50:59;;;;;;;9.87;7.57;;;;;;;1.89;76.13;100243.72;120602;1150;104423;-79
2020/12/26 08:53:34;;;;;;;10.60;7.20;;;;;;;1.81;76.34;100229.14;120620;1148;104338;-78
2020/12/26 08:56:01;;;;;;;9.60;7.37;;;;;;;1.76;76.30;100232.53;120544;1148;104394;-79
2020/12/26 08:58:31;;;;;;;9.90;7.17;;;;;;;1.72;76.76;100239.38;120589;1148;104343;-79
2020/12/26 09:01:04;;;;;;;9.07;6.93;;;;;;;1.70;76.28;100241.09;120683;1150;104351;-78
2020/12/26 09:03:34;;;;;;;11.07;7.60;;;;;;;1.66;76.68;100249.65;120651;1149;103220;-78
2020/12/26 09:06:03;;;;;;;10.37;7.37;;;;;;;1.61;76.74;100246.17;120658;1150;104373;-78
2020/12/26 09:08:33;;;;;;;11.95;8.25;;;;;;;1.59;76.88;100260.73;120557;1148;104407;-77
2020/12/26 09:11:03;;;;;;;11.00;8.00;;;;;;;1.57;77.04;100267.59;120570;1148;104402;-80
2020/12/26 09:13:33;;;;;;;11.00;8.30;;;;;;;1.54;76.90;100254.73;120571;1149;104306;-78
2020/12/26 09:16:08;;;;;;;11.47;7.97;;;;;;;1.54;77.01;100262.44;120584;1148;104310;-75
2020/12/26 09:18:41;;;;;;;10.17;7.90;;;;;;;1.55;76.59;100258.16;120532;1150;104411;-77
2020/12/26 09:21:21;;;;;;;11.67;8.43;;;;;;;1.54;77.22;100262.44;120546;1148;104469;-78
2020/12/26 09:23:50;;;;;;;11.30;8.30;;;;;;;1.55;77.32;100273.58;120669;1148;102722;-77
2020/12/26 09:26:19;;;;;;;13.07;9.20;;;;;;;1.50;77.17;100276.13;120639;1150;104297;-77
2020/12/26 09:29:01;;;;;;;9.80;7.50;;;;;;;1.46;76.99;100270.13;120607;1148;104362;-77
2020/12/26 09:31:31;;;;;;;10.97;8.50;;;;;;;1.46;76.95;100261.56;120604;1148;104495;-77
2020/12/26 09:34:01;;;;;;;10.67;7.80;;;;;;;1.48;76.90;100267.56;120564;1148;104595;-77
2020/12/26 09:36:29;;;;;;;12.67;9.03;;;;;;;1.50;76.54;100268.42;120547;1148;105172;-77
2020/12/26 09:38:56;;;;;;;12.53;8.90;;;;;;;1.51;77.01;100273.56;120533;1148;104359;-78
2020/12/26 09:41:26;;;;;;;12.20;8.78;;;;;;;1.52;76.95;100274.42;120546;1148;104500;-78
2020/12/26 09:43:55;;;;;;;13.33;9.43;;;;;;;1.53;77.24;100278.72;120588;1148;104478;-78
2020/12/26 09:46:22;;;;;;;13.20;9.87;;;;;;;1.59;77.22;100271.02;120581;1148;104472;-78
2020/12/26 09:48:50;;;;;;;13.87;10.13;;;;;;;1.60;76.98;100272.73;120551;1148;104251;-78
2020/12/26 09:51:21;;;;;;;13.97;10.73;;;;;;;1.62;76.96;100281.34;120595;1147;104375;-78
2020/12/26 09:53:50;;;;;;;13.70;9.27;;;;;;;1.66;77.36;100283.07;120609;1148;104334;-78
2020/12/26 09:56:18;;;;;;;13.87;9.93;;;;;;;1.72;77.57;100288.23;120563;1148;104853;-78
2020/12/26 09:58:48;;;;;;;14.60;10.00;;;;;;;1.77;77.04;100281.38;120496;1148;105233;-78
2020/12/26 10:01:20;;;;;;;13.37;9.83;;;;;;;1.83;76.93;100280.57;120600;1148;104431;-78
2020/12/26 10:03:49;;;;;;;13.43;9.73;;;;;;;1.83;77.10;100290.00;120618;1149;104627;-78
2020/12/26 10:06:19;;;;;;;15.00;10.00;;;;;;;1.83;76.79;100269.42;120657;1148;104417;-78
2020/12/26 10:08:48;;;;;;;14.50;10.63;;;;;;;1.80;77.03;100281.42;120585;1148;104345;-77
2020/12/26 10:11:17;;;;;;;14.13;10.10;;;;;;;1.75;77.17;100282.23;120633;1148;104436;-78
2020/12/26 10:13:46;;;;;;;12.83;9.47;;;;;;;1.73;77.31;100289.95;120531;1148;104358;-78
2020/12/26 10:16:18;;;;;;;15.05;10.65;;;;;;;1.72;77.33;100293.38;120610;1148;104420;-77
2020/12/26 10:18:46;;;;;;;11.70;9.37;;;;;;;1.69;77.39;100290.79;120569;1148;104434;-78
2020/12/26 10:21:17;;;;;;;14.17;10.10;;;;;;;1.67;77.22;100299.36;120635;1148;104867;-78
2020/12/26 10:23:45;;;;;;;15.20;10.13;;;;;;;1.63;77.46;100305.34;120732;1148;103196;-78
2020/12/26 10:26:12;;;;;;;13.73;10.13;;;;;;;1.62;77.46;100312.20;120603;1148;104368;-78
2020/12/26 10:28:39;;;;;;;13.77;10.17;;;;;;;1.62;77.58;100309.62;120574;1148;104511;-78
2020/12/26 10:31:07;;;;;;;17.10;11.50;;;;;;;1.60;77.64;100301.02;120566;1148;105572;-78
2020/12/26 10:33:34;;;;;;;14.90;10.43;;;;;;;1.58;77.41;100294.16;120596;1148;104454;-78
2020/12/26 10:36:01;;;;;;;16.57;10.93;;;;;;;1.56;77.44;100291.58;120597;1148;104542;-78
2020/12/26 10:38:30;;;;;;;14.33;10.57;;;;;;;1.57;77.63;100287.30;120566;1148;104342;-77
2020/12/26 10:40:57;;;;;;;17.83;11.53;;;;;;;1.56;77.69;100289.00;120525;1148;104369;-78
2020/12/26 10:43:25;;;;;;;15.60;11.03;;;;;;;1.50;77.69;100281.28;120548;1150;104384;-78
2020/12/26 10:45:52;;;;;;;14.80;11.10;;;;;;;1.57;77.37;100283.02;120555;1148;104959;-77
2020/12/26 10:48:19;;;;;;;15.00;10.93;;;;;;;1.59;77.71;100289.02;120539;1148;104337;-77
2020/12/26 10:50:46;;;;;;;15.77;11.20;;;;;;;1.59;77.39;100286.45;120581;1148;104428;-77
2020/12/26 10:53:14;;;;;;;14.60;11.40;;;;;;;1.58;77.58;100295.01;120592;1148;104465;-77
2020/12/26 10:55:41;;;;;;;15.90;11.57;;;;;;;1.61;77.94;100289.88;120549;1148;103137;-78
2020/12/26 10:58:13;;;;;;;17.87;12.20;;;;;;;1.63;77.65;100301.06;120544;1148;104520;-78
2020/12/26 11:00:40;;;;;;;16.30;12.00;;;;;;;1.67;77.73;100289.93;120604;1148;103659;-78
2020/12/26 11:03:08;;;;;;;19.03;12.27;;;;;;;1.67;77.75;100300.21;120623;1148;104399;-78
2020/12/26 11:05:35;;;;;;;17.37;11.70;;;;;;;1.68;77.93;100296.78;120605;1148;104457;-77
2020/12/26 11:08:02;;;;;;;17.30;11.87;;;;;;;1.65;77.80;100291.64;120600;1149;104400;-78
2020/12/26 11:10:30;;;;;;;17.53;12.17;;;;;;;1.68;78.05;100301.07;120571;1148;104332;-78
2020/12/26 11:12:57;;;;;;;16.80;11.60;;;;;;;1.69;77.98;100303.65;120469;1148;104354;-78
2020/12/26 11:15:25;;;;;;;17.07;12.43;;;;;;;1.71;77.50;100303.66;120573;1148;104349;-79
2020/12/26 11:17:52;;;;;;;22.43;13.03;;;;;;;1.70;77.71;100300.22;120623;1148;104423;-78
2020/12/26 11:20:19;;;;;;;20.02;13.20;;;;;;;1.71;77.60;100298.51;120616;1149;101920;-78
2020/12/26 11:22:46;;;;;;;18.57;13.33;;;;;;;1.74;77.78;100304.52;120624;1148;104343;-78
2020/12/26 11:25:14;;;;;;;19.30;13.23;;;;;;;1.78;77.76;100303.67;120624;1148;104360;-78